createdAt,value
2019-02-04T00:09:54.249Z,72.7
2019-02-04T00:19:57.740Z,72.7
2019-02-04T00:30:01.590Z,72.7
2019-02-04T00:40:06.781Z,73.3
2019-02-04T00:50:10.259Z,73.6
2019-02-04T01:00:13.794Z,74.1
2019-02-04T01:10:17.220Z,74
2019-02-04T01:20:20.656Z,74.2
2019-02-04T01:30:24.120Z,73.9
2019-02-04T01:40:27.565Z,73.8
2019-02-04T01:50:31.008Z,73.8
2019-02-04T02:00:34.445Z,73.4
2019-02-04T02:10:37.884Z,72.8
2019-02-04T02:20:41.341Z,72.4
2019-02-04T02:30:44.801Z,72.6
2019-02-04T02:40:48.255Z,73
2019-02-04T02:50:52.000Z,72.7
2019-02-04T03:00:56.283Z,72.4
2019-02-04T03:10:59.735Z,70.7
2019-02-04T03:21:03.230Z,68.7
2019-02-04T03:31:06.697Z,67.8
2019-02-04T03:41:10.155Z,68.1
2019-02-04T03:51:13.647Z,67.4
2019-02-04T04:01:17.079Z,67.2
2019-02-04T04:11:20.526Z,66.9
2019-02-04T04:21:23.942Z,67.3
2019-02-04T04:31:27.347Z,66.7
2019-02-04T04:41:30.881Z,65.8
2019-02-04T04:51:34.470Z,66.5
2019-02-04T05:01:37.939Z,70.9
2019-02-04T05:11:41.736Z,71.3
2019-02-04T05:21:46.157Z,71.8
2019-02-04T05:31:49.604Z,70.5
2019-02-04T05:41:53.067Z,70.5
2019-02-04T05:51:56.534Z,68.1
2019-02-04T06:02:00.024Z,68.5
2019-02-04T06:12:03.489Z,69.1
2019-02-04T06:22:06.934Z,68.6
2019-02-04T06:32:10.533Z,66.4
2019-02-04T06:42:14.098Z,65.1
2019-02-04T06:52:17.699Z,65.3
2019-02-04T07:02:21.165Z,66.3
2019-02-04T07:12:24.635Z,66.3
2019-02-04T07:22:28.089Z,68.8
2019-02-04T07:32:31.544Z,69.9
2019-02-04T07:42:35.082Z,69.7
2019-02-04T07:52:38.501Z,70.3
2019-02-04T08:02:41.961Z,70.6
2019-02-04T08:12:45.402Z,70.9
2019-02-04T08:22:48.838Z,69.1
2019-02-04T08:32:52.300Z,68.8
2019-02-04T08:42:55.777Z,68.7
2019-02-04T08:52:59.243Z,65
2019-02-04T09:03:02.739Z,61
2019-02-04T09:13:06.217Z,58.2
2019-02-04T09:23:09.701Z,56.4
2019-02-04T09:33:13.165Z,55.8
2019-02-04T09:43:16.750Z,55.7
2019-02-04T09:53:20.185Z,55.3
2019-02-04T10:03:23.632Z,56.5
2019-02-04T10:13:27.086Z,56.8
2019-02-04T10:23:30.558Z,56.6
2019-02-04T10:33:34.081Z,56.4
2019-02-04T10:43:37.695Z,58.4
2019-02-04T10:53:42.596Z,58.2
2019-02-04T11:03:46.956Z,58.7
2019-02-04T11:13:50.517Z,59.2
2019-02-04T11:23:54.123Z,60.8
2019-02-04T11:33:57.741Z,61.5
2019-02-04T11:44:01.396Z,59.7
2019-02-04T11:54:04.955Z,60.4
2019-02-04T12:04:08.420Z,61.1
2019-02-04T12:14:11.876Z,60.9
2019-02-04T12:24:15.595Z,60.2
2019-02-04T12:34:19.970Z,62.6
2019-02-04T12:44:23.402Z,62.2
2019-02-04T12:54:26.978Z,58.7
2019-02-04T13:04:30.669Z,60.3
2019-02-04T13:14:34.740Z,62
2019-02-04T13:24:38.151Z,62.2
2019-02-04T13:34:41.577Z,61.9
2019-02-04T13:44:45.079Z,61.3
2019-02-04T13:54:48.691Z,61.3
2019-02-04T14:04:52.191Z,61.9
2019-02-04T14:14:55.769Z,61.5
2019-02-04T14:24:59.215Z,61.2
2019-02-04T14:35:02.677Z,61.3
2019-02-04T14:45:06.135Z,61.3
2019-02-04T14:55:09.727Z,61.2
2019-02-04T15:05:13.187Z,62.4
2019-02-04T15:15:16.635Z,61.7
2019-02-04T15:25:20.088Z,62.7
2019-02-04T15:35:23.837Z,62.1
2019-02-04T15:45:28.066Z,62.4
2019-02-04T15:55:31.491Z,63.3
2019-02-04T16:05:34.925Z,63.7
2019-02-04T16:15:38.345Z,64.2
2019-02-04T16:25:41.823Z,64.1
2019-02-04T16:35:45.256Z,65.2
2019-02-04T16:45:48.708Z,65
2019-02-04T16:55:52.127Z,65.3
2019-02-04T17:05:55.629Z,65.5
2019-02-04T17:15:59.073Z,66.4
2019-02-04T17:26:02.536Z,66.4
2019-02-04T17:36:06.008Z,67.2
2019-02-04T17:46:09.469Z,67.1
2019-02-04T17:56:12.898Z,67.6
2019-02-04T18:06:16.356Z,67.6
2019-02-04T18:16:19.830Z,67.5
2019-02-04T18:26:23.641Z,67.4
2019-02-04T18:36:30.818Z,67.5
2019-02-04T18:46:35.263Z,67.8
2019-02-04T18:56:38.703Z,67.3
2019-02-04T19:06:48.196Z,67.5
2019-02-04T19:16:51.666Z,67.5
2019-02-04T19:26:55.149Z,67.2
2019-02-04T19:36:58.594Z,68.1
2019-02-04T19:47:02.059Z,67.8
2019-02-04T19:57:05.503Z,67.3
2019-02-04T20:07:08.936Z,67
2019-02-04T20:17:12.387Z,66.6
2019-02-04T20:27:15.983Z,65.8
2019-02-04T20:37:19.443Z,67.2
2019-02-04T20:47:22.915Z,67.8
2019-02-04T20:57:26.380Z,67.9
2019-02-04T21:07:29.843Z,67.9
2019-02-04T21:17:33.258Z,68
2019-02-04T21:27:38.110Z,68.4
2019-02-04T21:37:42.345Z,68.8
2019-02-04T21:47:45.765Z,68.9
2019-02-04T21:57:49.216Z,69.1
2019-02-04T22:07:52.652Z,69.2
2019-02-04T22:17:56.129Z,69
2019-02-04T22:27:59.581Z,69.7
2019-02-04T22:38:03.076Z,70.1
2019-02-04T22:48:06.515Z,68.8
2019-02-04T22:58:09.971Z,68.7
2019-02-04T23:08:13.395Z,68.4
2019-02-04T23:18:16.865Z,67.7
2019-02-04T23:28:20.543Z,66.6
2019-02-04T23:38:24.565Z,66.5
2019-02-04T23:48:28.109Z,66.5
2019-02-04T23:58:31.536Z,67.5
